Terminal Aerodrome Forecast
Issued by NWS Brownsville, TX

Home | Current Version | Previous Version | Text Only | Print | Product List | Glossary On
Versions: 1 2 3 4 5 6 7 8 9 10 11 12 13 14 15 16 17
000
FTUS44 KBRO 261733 CCA
TAFHRL
TAF COR
KHRL 261733Z 2618/2718 34015KT P6SM FEW010 SCT020
      TEMPO 2619/2622 32018G35KT 2SM +TSRA BKN010CB
     FM262300 35015G25KT P6SM BKN025 OVC050
     FM270200 35014G21KT P6SM SCT035=

USA.gov is the U.S. government's official web portal to all federal, state and local government web resources and services.